Sentinel — WBN6510 — position and weather

sailwx.info

Track history (hours):
 
Tides and Currents Weather Stations Pressure Air Temp Water Temp Dewpoint Dewpoint Depression Visibility Wind Speed Wind Dir Waves Ship Positions

Sentinel

Owner: Crowley Puerto Rico Services, Inc., Jacksonville, FL. More information available from US FCC via Universal Licensing System and Coast Guard Vessel Documentation Center.

Last reported at 2018-Jul-14 19:16 UTC. Time now 2018-Jul-17 22:45 UTC.
Position N 39°37' W 075°38'.

Length 40 m; draft 6 m.

Type: Tug. MMSI: 366766980.

Date/timePositionNaut miles runAvg speedWind from/ knotsBaromVisibWave heightAir tempDewpointWater temp
2018-Jul-14 19:16N 39°37' W 075°38'0 0.0
2018-Jul-14 18:57N 39°37' W 075°38'2 1.7
2018-Jul-14 17:47N 39°38' W 075°37'25 1.4
2018-Jul-13 23:27N 39°54' W 075°12'36 1.9
2018-Jul-13 04:39N 39°18' W 075°18'2510.1
2018-Jul-13 02:11N 38°59' W 074°58'1710.2
2018-Jul-13 00:30N 38°42' W 074°54'74924.4
2018-Jul-11 17:45N 26°58' W 079°60'1812.8
2018-Jul-11 16:21N 26°40' W 079°59'2312.3
2018-Jul-11 14:30N 26°17' W 079°59'612.7
2018-Jul-11 14:00N 26°11' W 079°60'612.9
2018-Jul-11 13:30N 26°05' W 080°00'612.9
2018-Jul-11 13:00N 25°58' W 080°00'612.5
2018-Jul-11 12:30N 25°52' W 080°00'612.0
2018-Jul-11 12:00N 25°46' W 080°00'510.4
2018-Jul-11 11:31N 25°41' W 080°00'  
Track history (hours):
 
Tides and Currents Weather Stations Pressure Air Temp Water Temp Dewpoint Dewpoint Depression Visibility Wind Speed Wind Dir Waves Ship Positions

Sentinel

Owner: Crowley Puerto Rico Services, Inc., Jacksonville, FL. More information available from US FCC via Universal Licensing System and Coast Guard Vessel Documentation Center.

Last reported at 2018-Jul-14 19:16 UTC. Time now 2018-Jul-17 22:45 UTC.
Position N 39°37' W 075°38'.

Length 40 m; draft 6 m.

Type: Tug. MMSI: 366766980.

Date/timePositionNaut miles runAvg speedWind from/ knotsBaromVisibWave heightAir tempDewpointWater temp
2018-Jul-14 19:16N 39°37' W 075°38'0 0.0
2018-Jul-14 18:57N 39°37' W 075°38'2 1.7
2018-Jul-14 17:47N 39°38' W 075°37'25 1.4
2018-Jul-13 23:27N 39°54' W 075°12'36 1.9
2018-Jul-13 04:39N 39°18' W 075°18'2510.1
2018-Jul-13 02:11N 38°59' W 074°58'1710.2
2018-Jul-13 00:30N 38°42' W 074°54'74924.4
2018-Jul-11 17:45N 26°58' W 079°60'1812.8
2018-Jul-11 16:21N 26°40' W 079°59'2312.3
2018-Jul-11 14:30N 26°17' W 079°59'612.7
2018-Jul-11 14:00N 26°11' W 079°60'612.9
2018-Jul-11 13:30N 26°05' W 080°00'612.9
2018-Jul-11 13:00N 25°58' W 080°00'612.5
2018-Jul-11 12:30N 25°52' W 080°00'612.0
2018-Jul-11 12:00N 25°46' W 080°00'510.4
2018-Jul-11 11:31N 25°41' W 080°00'  

Dump ship's entire track history